메인 페이지
METAR-TAF:

METAR-TAF

공항 :

캔자스시티, 미주리, 미국

위도: 39-17-50N, 경도: 094-43-50W, 고도: 312m

현재 날씨관측

예보는 59분 전, 03:53시(UTC)에 발표되었습니다.
남남서15kt
온도 6°C
습도 56%
기압 1010 hPa
시정: 16.1km
고도 20000ft 상공 구름 많음

METAR: KMCI 200353Z 21015KT 10SM BKN200 06/M02 A2983 RMK AO2 SLP104 T00611022

시각: 22:52 (04:52 UTC)

예보

예보는 5 시간 32분 전, 23:20시(UTC)에 발표되었습니다.
예보 대상 시간: 20일 00시부터 20일 24시까지 (UTC)
12kt
시정: 10km
고도 25000ft 상공 구름 많음
20일 0900시부터 (UTC)
남남서10kt
시정: 10km
고도 1100ft 상공 구름 보통
고도 4000ft 상공 구름 많음
20일 1200시부터 (UTC)
남남서8kt
시정: 10km
고도 1000ft 상공 구름 많음
20일 1600시부터 (UTC)
남남서7kt
시정: 8.0km
고도 800ft 상공 흐림
약한이슬비, 박무

TAF: KMCI 192320Z 2000/2024 19012KT P6SM BKN250 FM200900 20010KT P6SM SCT011 BKN040 FM201200 20008KT P6SM BKN010 FM201600 20007KT 5SM -DZ BR OVC008

4,000개 이상의 공항 관측 자료 및 예보 (METAR 및 TAF 보고).

지도상에서 검색 가능한 기상관측소가 노란 점과 빨간 점으로 표시되어 있습니다.

기상관측소 명을 보려면 표시 위로 마우스를 이동하세요.

날씨 관측과 예보를 보려면 클릭하세요.

지도 변경 : 확대하려면 엑스 표시가 있는 녹색 버튼, 축소하려면 빼기 표시가 있는 녹색 버튼, 다음 페이지의 지도를 보려면 녹색 화살표를 클릭하세요.


METAR-TAF: